createdAt,value
2022-12-17T00:03:37.402Z,49.19
2022-12-17T00:07:52.975Z,49.35
2022-12-17T00:12:06.943Z,49.31
2022-12-17T00:16:20.472Z,49.18
2022-12-17T00:20:33.391Z,49.15
2022-12-17T00:24:48.563Z,48.67
2022-12-17T00:29:01.335Z,49.02
2022-12-17T00:33:14.968Z,49.33
2022-12-17T00:37:29.115Z,49.52
2022-12-17T00:41:44.437Z,49.57
2022-12-17T00:45:57.058Z,49.62
2022-12-17T00:50:11.366Z,49.77
2022-12-17T00:54:24.169Z,49.67
2022-12-17T00:58:39.819Z,49.59
2022-12-17T01:02:52.522Z,49.31
2022-12-17T01:07:05.345Z,49.36
2022-12-17T01:11:21.143Z,49.40
2022-12-17T01:15:36.682Z,49.52
2022-12-17T01:19:49.604Z,49.42
2022-12-17T01:24:02.199Z,49.36
2022-12-17T01:28:15.044Z,49.45
2022-12-17T01:32:30.302Z,49.33
2022-12-17T01:36:42.919Z,49.33
2022-12-17T01:40:55.524Z,49.54
2022-12-17T01:45:11.152Z,49.66
2022-12-17T01:49:28.179Z,49.75
2022-12-17T01:53:46.273Z,50.03
2022-12-17T01:57:58.915Z,50.16
2022-12-17T02:02:21.029Z,50.09
2022-12-17T02:06:42.530Z,50.30
2022-12-17T02:11:03.093Z,50.36
2022-12-17T02:15:25.336Z,50.42
2022-12-17T02:19:55.153Z,50.53
2022-12-17T02:24:27.221Z,50.53
2022-12-17T02:28:43.450Z,50.68
2022-12-17T02:33:01.842Z,50.82
2022-12-17T02:37:15.101Z,50.39
2022-12-17T02:41:32.558Z,50.17
2022-12-17T02:45:49.639Z,50.10
2022-12-17T02:50:03.234Z,49.94
2022-12-17T02:54:21.237Z,49.80
2022-12-17T02:58:34.010Z,49.89
2022-12-17T03:02:49.692Z,49.93
2022-12-17T03:07:02.377Z,49.87
2022-12-17T03:11:15.288Z,49.66
2022-12-17T03:15:27.970Z,49.70
2022-12-17T03:19:42.938Z,49.78
2022-12-17T03:23:55.818Z,50.01
2022-12-17T03:28:14.132Z,50.09
2022-12-17T03:32:26.872Z,50.27
2022-12-17T03:36:42.345Z,50.19
2022-12-17T03:40:54.885Z,50.22
2022-12-17T03:45:07.471Z,50.14
2022-12-17T03:49:20.332Z,49.62
2022-12-17T03:53:35.928Z,49.46
2022-12-17T03:57:48.740Z,49.37
2022-12-17T04:02:01.434Z,49.98
2022-12-17T04:06:14.455Z,50.08
2022-12-17T04:10:29.731Z,49.90
2022-12-17T04:14:42.432Z,50.00
2022-12-17T04:18:55.077Z,50.22
2022-12-17T04:23:07.644Z,50.04
2022-12-17T04:27:22.905Z,50.32
2022-12-17T04:31:35.697Z,50.36
2022-12-17T04:35:48.366Z,50.49
2022-12-17T04:40:00.996Z,50.79
2022-12-17T04:44:16.163Z,51.16
2022-12-17T04:48:28.948Z,51.99
2022-12-17T04:52:41.542Z,52.43
2022-12-17T04:56:54.096Z,52.21
2022-12-17T05:01:10.953Z,52.53
2022-12-17T05:05:24.995Z,53.19
2022-12-17T05:09:37.576Z,53.71
2022-12-17T05:13:50.168Z,53.83
2022-12-17T05:18:20.948Z,54.08
2022-12-17T05:22:33.646Z,53.64
2022-12-17T05:26:46.170Z,53.88
2022-12-17T05:30:58.983Z,54.03
2022-12-17T05:35:14.150Z,54.33
2022-12-17T05:39:27.097Z,53.96
2022-12-17T05:43:40.015Z,53.97
2022-12-17T05:47:52.703Z,54.25
2022-12-17T05:52:07.926Z,54.36
2022-12-17T05:56:21.060Z,54.46
2022-12-17T06:00:33.962Z,54.61
2022-12-17T06:04:46.802Z,54.69
2022-12-17T06:09:01.907Z,54.87
2022-12-17T06:13:14.480Z,54.04
2022-12-17T06:17:27.184Z,54.19
2022-12-17T06:21:40.368Z,53.83
2022-12-17T06:25:55.478Z,53.59
2022-12-17T06:30:08.056Z,53.80
2022-12-17T06:34:20.650Z,54.28
2022-12-17T06:38:33.423Z,53.80
2022-12-17T06:42:48.755Z,53.98
2022-12-17T06:47:01.480Z,53.71
2022-12-17T06:51:14.172Z,54.31
2022-12-17T06:55:26.890Z,54.11
2022-12-17T06:59:42.057Z,54.35
2022-12-17T07:03:54.683Z,53.99
2022-12-17T07:08:13.097Z,53.63
2022-12-17T07:12:25.790Z,53.69
2022-12-17T07:16:40.983Z,53.81
2022-12-17T07:20:53.655Z,54.27
2022-12-17T07:25:06.264Z,54.12
2022-12-17T07:29:19.156Z,54.28
2022-12-17T07:33:34.530Z,54.35
2022-12-17T07:37:47.322Z,54.24
2022-12-17T07:41:59.903Z,54.10
2022-12-17T07:46:12.839Z,54.14
2022-12-17T07:50:28.094Z,54.08
2022-12-17T07:54:40.724Z,54.41
2022-12-17T07:58:56.112Z,54.08
2022-12-17T08:03:13.536Z,53.49
2022-12-17T08:07:28.772Z,52.67
2022-12-17T08:11:41.641Z,51.43
2022-12-17T08:15:55.264Z,50.90
2022-12-17T08:20:08.166Z,49.93
2022-12-17T08:24:23.596Z,49.65
2022-12-17T08:28:51.676Z,48.57
2022-12-17T08:33:04.636Z,47.62
2022-12-17T08:37:17.189Z,46.53
2022-12-17T08:41:32.403Z,46.38
2022-12-17T08:45:45.149Z,44.98
2022-12-17T08:49:57.771Z,43.90
2022-12-17T08:54:10.399Z,43.83
2022-12-17T08:58:26.268Z,43.52
2022-12-17T09:02:39.665Z,42.59
2022-12-17T09:06:52.310Z,42.54
2022-12-17T09:11:05.302Z,41.65
2022-12-17T09:15:22.118Z,41.49
2022-12-17T09:19:34.825Z,40.77
2022-12-17T09:23:47.356Z,40.20
2022-12-17T09:27:59.960Z,38.34
2022-12-17T09:32:15.501Z,38.41
2022-12-17T09:36:28.138Z,37.88
2022-12-17T09:40:41.015Z,37.94
2022-12-17T09:45:03.307Z,37.15
2022-12-17T09:49:31.094Z,36.23
2022-12-17T09:53:52.054Z,35.90
2022-12-17T09:58:17.834Z,35.52
2022-12-17T10:02:36.044Z,34.66
2022-12-17T10:06:52.535Z,33.98
2022-12-17T10:11:05.201Z,33.43
2022-12-17T10:15:18.792Z,33.93
2022-12-17T10:19:43.909Z,33.05
2022-12-17T10:23:59.749Z,32.88
2022-12-17T10:28:18.209Z,32.96
2022-12-17T10:32:38.972Z,33.56
2022-12-17T10:36:51.732Z,33.32
2022-12-17T10:41:06.984Z,32.57
2022-12-17T10:45:36.979Z,32.14
2022-12-17T10:49:58.075Z,32.09
2022-12-17T10:54:34.186Z,31.98
2022-12-17T10:58:50.960Z,31.68
2022-12-17T11:03:04.326Z,31.58
2022-12-17T11:07:17.010Z,30.64
2022-12-17T11:11:32.034Z,30.31
2022-12-17T11:15:53.573Z,30.36
2022-12-17T11:20:12.263Z,30.11
2022-12-17T11:24:35.407Z,29.96
2022-12-17T11:28:51.580Z,30.01
2022-12-17T11:33:21.173Z,29.69
2022-12-17T11:37:37.196Z,28.74
2022-12-17T11:42:09.528Z,28.99
2022-12-17T11:46:38.503Z,29.08
2022-12-17T11:51:03.040Z,29.00
2022-12-17T11:55:30.810Z,28.57
2022-12-17T11:59:54.034Z,28.66
2022-12-17T12:04:25.740Z,28.29
2022-12-17T12:08:54.819Z,28.38
2022-12-17T12:13:22.777Z,28.56
2022-12-17T12:17:57.208Z,28.00
2022-12-17T12:22:21.299Z,27.64
2022-12-17T12:26:46.135Z,27.57
2022-12-17T12:31:14.183Z,26.50
2022-12-17T12:35:35.817Z,26.50
2022-12-17T12:39:55.616Z,26.36
2022-12-17T12:44:17.651Z,25.46
2022-12-17T12:48:49.428Z,25.40
2022-12-17T12:53:02.750Z,25.35
2022-12-17T12:57:15.384Z,25.20
2022-12-17T13:01:31.555Z,25.24
2022-12-17T13:05:39.660Z,24.73
2022-12-17T13:09:52.799Z,24.67
2022-12-17T13:13:58.540Z,24.09
2022-12-17T13:18:17.910Z,24.17
2022-12-17T13:22:36.413Z,23.97
2022-12-17T13:26:47.805Z,24.91
2022-12-17T13:30:48.957Z,24.67
2022-12-17T13:35:10.641Z,25.80
2022-12-17T13:39:30.263Z,26.13
2022-12-17T13:43:36.417Z,26.26
2022-12-17T13:47:38.654Z,26.88
2022-12-17T13:51:41.541Z,26.93
2022-12-17T13:55:42.924Z,26.99
2022-12-17T13:59:43.400Z,26.60
2022-12-17T14:04:08.898Z,27.16
2022-12-17T14:08:19.516Z,27.90
2022-12-17T14:12:26.133Z,28.58
2022-12-17T14:16:26.631Z,29.09
2022-12-17T14:20:31.921Z,29.96
2022-12-17T14:24:35.563Z,30.64
2022-12-17T14:28:38.909Z,31.26
2022-12-17T14:32:40.144Z,31.63
2022-12-17T14:36:43.863Z,32.20
2022-12-17T14:40:46.686Z,33.02
2022-12-17T14:44:55.486Z,33.66
2022-12-17T14:49:06.024Z,34.23
2022-12-17T14:53:27.500Z,34.99
2022-12-17T14:57:30.234Z,36.05
2022-12-17T15:01:30.517Z,37.15
2022-12-17T15:05:30.704Z,38.51
2022-12-17T15:09:30.925Z,39.73
2022-12-17T15:13:33.745Z,41.38
2022-12-17T15:17:33.842Z,42.28
2022-12-17T15:21:34.650Z,42.96
2022-12-17T15:25:40.119Z,43.97
2022-12-17T15:29:47.271Z,44.59
2022-12-17T15:33:47.331Z,45.27
2022-12-17T15:37:47.454Z,46.36
2022-12-17T15:42:00.029Z,46.63
2022-12-17T15:46:04.371Z,47.32
2022-12-17T15:50:04.839Z,47.14
2022-12-17T15:54:04.934Z,47.75
2022-12-17T15:58:05.128Z,48.35
2022-12-17T16:02:08.061Z,49.31
2022-12-17T16:06:09.151Z,50.27
2022-12-17T16:10:10.795Z,50.01
2022-12-17T16:14:10.934Z,51.31
2022-12-17T16:18:13.637Z,51.20
2022-12-17T16:22:13.730Z,50.65
2022-12-17T16:26:14.822Z,51.31
2022-12-17T16:30:17.046Z,51.39
2022-12-17T16:34:20.139Z,50.92
2022-12-17T16:38:20.788Z,51.28
2022-12-17T16:42:20.884Z,52.22
2022-12-17T16:46:31.081Z,52.46
2022-12-17T16:50:33.994Z,52.75
2022-12-17T16:54:35.728Z,52.87
2022-12-17T16:58:36.307Z,52.76
2022-12-17T17:02:36.759Z,52.24
2022-12-17T17:06:42.527Z,57.63
2022-12-17T17:10:42.846Z,57.33
2022-12-17T17:14:44.325Z,54.38
2022-12-17T17:18:44.559Z,53.74
2022-12-17T17:22:47.326Z,53.36
2022-12-17T17:26:47.617Z,53.46
2022-12-17T17:30:47.706Z,53.80
2022-12-17T17:34:47.853Z,53.88
2022-12-17T17:38:53.394Z,54.02
2022-12-17T17:42:53.583Z,53.87
2022-12-17T17:46:53.892Z,53.21
2022-12-17T17:51:04.348Z,53.10
2022-12-17T17:55:08.401Z,53.20
2022-12-17T17:59:11.611Z,53.53
2022-12-17T18:03:11.771Z,53.12
2022-12-17T18:07:28.147Z,53.01
2022-12-17T18:11:34.070Z,53.22
2022-12-17T18:15:34.116Z,53.44
2022-12-17T18:19:34.214Z,53.35
2022-12-17T18:23:34.408Z,53.40
2022-12-17T18:27:37.137Z,53.38
2022-12-17T18:31:37.449Z,53.65
2022-12-17T18:35:38.291Z,54.80
2022-12-17T18:39:39.132Z,53.95
2022-12-17T18:43:43.253Z,54.05
2022-12-17T18:47:44.738Z,54.34
2022-12-17T18:51:48.877Z,54.43
2022-12-17T18:55:48.943Z,54.97
2022-12-17T18:59:52.288Z,54.73
2022-12-17T19:03:52.675Z,54.34
2022-12-17T19:07:52.908Z,53.38
2022-12-17T19:11:54.741Z,53.11
2022-12-17T19:15:57.606Z,53.44
2022-12-17T19:19:57.860Z,53.55
2022-12-17T19:24:00.992Z,52.93
2022-12-17T19:28:01.265Z,53.04
2022-12-17T19:32:04.102Z,52.91
2022-12-17T19:36:08.802Z,52.61
2022-12-17T19:40:11.072Z,52.94
2022-12-17T19:44:15.771Z,53.51
2022-12-17T19:48:19.130Z,53.84
2022-12-17T19:52:19.420Z,53.17
2022-12-17T19:56:23.443Z,53.10
2022-12-17T20:00:23.857Z,53.50
2022-12-17T20:04:26.636Z,53.45
2022-12-17T20:08:26.867Z,53.40
2022-12-17T20:12:26.943Z,53.50
2022-12-17T20:16:27.220Z,53.75
2022-12-17T20:20:29.983Z,54.00
2022-12-17T20:24:31.970Z,53.67
2022-12-17T20:28:32.477Z,54.39
2022-12-17T20:32:32.648Z,53.81
2022-12-17T20:36:35.947Z,53.33
2022-12-17T20:40:36.163Z,52.80
2022-12-17T20:44:36.618Z,53.21
2022-12-17T20:48:37.464Z,53.06
2022-12-17T20:52:40.664Z,52.82
2022-12-17T20:56:42.318Z,53.26
2022-12-17T21:00:42.808Z,53.55
2022-12-17T21:04:43.128Z,53.47
2022-12-17T21:08:50.212Z,53.24
2022-12-17T21:13:03.477Z,53.14
2022-12-17T21:17:04.942Z,52.52
2022-12-17T21:21:09.468Z,52.53
2022-12-17T21:25:12.951Z,52.51
2022-12-17T21:29:14.606Z,52.14
2022-12-17T21:33:14.699Z,51.89
2022-12-17T21:37:15.069Z,52.52
2022-12-17T21:41:21.872Z,52.51
2022-12-17T21:45:21.941Z,52.55
2022-12-17T21:49:22.321Z,52.23
2022-12-17T21:53:23.355Z,52.47
2022-12-17T21:57:26.183Z,52.33
2022-12-17T22:01:29.290Z,52.23
2022-12-17T22:05:29.576Z,52.48
2022-12-17T22:09:45.104Z,53.28
2022-12-17T22:14:15.534Z,53.37
2022-12-17T22:18:19.290Z,53.54
2022-12-17T22:22:19.377Z,53.69
2022-12-17T22:26:21.635Z,53.80
2022-12-17T22:30:37.032Z,53.73
2022-12-17T22:35:01.388Z,53.74
2022-12-17T22:41:55.876Z,53.88
2022-12-17T22:44:42.208Z,54.04
2022-12-17T22:47:55.255Z,55.15
2022-12-17T22:51:55.342Z,54.90
2022-12-17T22:55:56.282Z,54.44
2022-12-17T22:59:57.246Z,53.46
2022-12-17T23:04:02.459Z,53.46
2022-12-17T23:08:03.516Z,54.00
2022-12-17T23:12:23.725Z,54.07
2022-12-17T23:16:24.796Z,53.87
2022-12-17T23:20:29.709Z,54.29
2022-12-17T23:24:29.819Z,54.26
2022-12-17T23:28:30.079Z,54.38
2022-12-17T23:32:30.412Z,54.16
2022-12-17T23:36:33.187Z,54.41
2022-12-17T23:40:33.258Z,54.41
2022-12-17T23:44:33.368Z,54.39
2022-12-17T23:48:34.805Z,54.73
2022-12-17T23:52:37.542Z,54.69
2022-12-17T23:56:38.169Z,54.81
